Terminal Aerodrome Forecast
Issued by NWS

Home | Current Version | Previous Version | Text Only | Print | Product List | Glossary On
Versions: 1 2 3 4 5 6 7 8 9 10 11 12 13 14
708
FTPA31 PHFO 022331
TAFHJR
TAF
PHJR 022331Z 0300/0324 07010G17KT P6SM SCT050
     FM030500 05005KT P6SM SCT050
     FM032000 05010G17KT P6SM SCT050=

USA.gov is the U.S. government's official web portal to all federal, state and local government web resources and services.